createdAt,value
2022-12-26T00:00:40.966Z,100161.34
2022-12-26T00:03:07.851Z,100158.78
2022-12-26T00:05:39.140Z,100158.59
2022-12-26T00:08:07.993Z,100160.66
2022-12-26T00:10:34.915Z,100172.97
2022-12-26T00:13:37.345Z,100168.09
2022-12-26T00:15:48.351Z,100164.50
2022-12-26T00:18:15.018Z,100156.00
2022-12-26T00:20:41.758Z,100156.97
2022-12-26T00:23:09.114Z,100161.56
2022-12-26T00:25:35.800Z,100155.34
2022-12-26T00:28:02.697Z,100152.56
2022-12-26T00:30:29.703Z,100153.28
2022-12-26T00:32:56.579Z,100154.31
2022-12-26T00:35:23.603Z,100159.81
2022-12-26T00:37:50.280Z,100155.16
2022-12-26T00:40:18.629Z,100153.06
2022-12-26T00:42:45.282Z,100166.94
2022-12-26T00:45:12.306Z,100170.75
2022-12-26T00:47:39.230Z,100173.19
2022-12-26T00:50:12.877Z,100173.97
2022-12-26T00:52:42.465Z,100169.94
2022-12-26T00:55:10.353Z,100186.56
2022-12-26T00:57:37.175Z,100184.09
2022-12-26T01:00:05.268Z,100183.28
2022-12-26T01:02:38.200Z,100180.88
2022-12-26T01:05:09.296Z,100183.97
2022-12-26T01:08:20.460Z,100188.78
2022-12-26T01:10:23.973Z,100191.88
2022-12-26T01:12:50.811Z,100189.81
2022-12-26T01:15:17.532Z,100191.44
2022-12-26T01:17:44.234Z,100196.53
2022-12-26T01:20:11.335Z,100200.50
2022-12-26T01:22:38.291Z,100198.03
2022-12-26T01:25:05.641Z,100189.22
2022-12-26T01:27:32.332Z,100190.38
2022-12-26T01:29:59.308Z,100197.94
2022-12-26T01:32:26.174Z,100204.66
2022-12-26T01:34:55.565Z,100214.66
2022-12-26T01:37:23.571Z,100203.03
2022-12-26T01:39:51.641Z,100210.56
2022-12-26T01:42:23.518Z,100207.47
2022-12-26T01:45:19.881Z,100216.06
2022-12-26T01:48:04.174Z,100231.13
2022-12-26T01:50:37.442Z,100220.09
2022-12-26T01:53:17.344Z,100226.38
2022-12-26T01:55:48.815Z,100248.66
2022-12-26T01:58:20.387Z,100262.91
2022-12-26T02:00:47.459Z,100248.53
2022-12-26T02:03:50.239Z,100259.34
2022-12-26T02:06:17.402Z,100257.25
2022-12-26T02:08:46.137Z,100250.03
2022-12-26T02:11:18.345Z,100256.88
2022-12-26T02:13:45.326Z,100255.03
2022-12-26T02:16:16.639Z,100262.13
2022-12-26T02:18:43.414Z,100270.00
2022-12-26T02:21:18.702Z,100274.28
2022-12-26T02:24:20.521Z,100278.25
2022-12-26T02:27:08.945Z,100269.75
2022-12-26T02:29:58.823Z,100270.59
2022-12-26T02:32:40.511Z,100271.50
2022-12-26T02:35:13.533Z,100279.53
2022-12-26T02:38:17.416Z,100283.81
2022-12-26T02:40:49.788Z,100280.09
2022-12-26T02:43:35.967Z,100283.19
2022-12-26T02:46:47.344Z,100283.69
2022-12-26T02:49:16.665Z,100298.44
2022-12-26T02:52:20.367Z,100291.91
2022-12-26T02:55:24.868Z,100282.63
2022-12-26T02:58:21.024Z,100270.78
2022-12-26T03:01:09.327Z,100267.09
2022-12-26T03:03:57.092Z,100285.06
2022-12-26T03:06:46.512Z,100278.94
2022-12-26T03:09:42.878Z,100286.69
2022-12-26T03:12:38.607Z,100296.78
2022-12-26T03:15:19.018Z,100285.06
2022-12-26T03:18:01.525Z,100278.91
2022-12-26T03:20:31.323Z,100265.56
2022-12-26T03:23:02.500Z,100270.47
2022-12-26T03:26:13.869Z,100280.78
2022-12-26T03:28:42.942Z,100281.91
2022-12-26T03:31:12.787Z,100284.34
2022-12-26T03:34:01.021Z,100277.53
2022-12-26T03:36:42.761Z,100283.56
2022-12-26T03:39:18.690Z,100278.69
2022-12-26T03:42:31.798Z,100276.13
2022-12-26T03:45:44.050Z,100269.19
2022-12-26T03:49:12.580Z,100273.13
2022-12-26T03:52:24.426Z,100280.06
2022-12-26T03:55:28.428Z,100290.03
2022-12-26T03:58:34.249Z,100287.34
2022-12-26T04:01:23.307Z,100278.91
2022-12-26T04:04:09.381Z,100270.78
2022-12-26T04:07:09.476Z,100268.91
2022-12-26T04:10:07.977Z,100271.38
2022-12-26T04:12:56.133Z,100282.44
2022-12-26T04:16:08.506Z,100282.72
2022-12-26T04:19:01.873Z,100282.59
2022-12-26T04:22:00.828Z,100281.19
2022-12-26T04:24:53.080Z,100283.81
2022-12-26T04:27:42.744Z,100293.25
2022-12-26T04:30:29.095Z,100292.41
2022-12-26T04:33:22.403Z,100294.66
2022-12-26T04:36:14.934Z,100290.28
2022-12-26T04:39:07.919Z,100286.53
2022-12-26T04:41:54.407Z,100273.16
2022-12-26T04:44:24.356Z,100278.38
2022-12-26T04:46:53.665Z,100286.53
2022-12-26T04:49:38.728Z,100281.97
2022-12-26T04:52:11.471Z,100285.84
2022-12-26T04:54:38.819Z,100285.84
2022-12-26T04:57:06.605Z,100290.78
2022-12-26T04:59:34.297Z,100291.94
2022-12-26T05:02:19.575Z,100288.19
2022-12-26T05:05:04.901Z,100284.63
2022-12-26T05:07:53.747Z,100288.09
2022-12-26T05:10:21.943Z,100286.25
2022-12-26T05:12:49.099Z,100283.94
2022-12-26T05:15:15.933Z,100280.69
2022-12-26T05:18:01.235Z,100282.75
2022-12-26T05:20:50.659Z,100284.72
2022-12-26T05:23:41.377Z,100270.31
2022-12-26T05:26:39.544Z,100278.66
2022-12-26T05:29:06.586Z,100286.94
2022-12-26T05:31:36.350Z,100289.94
2022-12-26T05:34:17.271Z,100297.69
2022-12-26T05:36:47.671Z,100286.94
2022-12-26T05:39:14.643Z,100275.09
2022-12-26T05:41:42.035Z,100284.03
2022-12-26T05:44:09.444Z,100294.56
2022-12-26T05:46:36.782Z,100299.47
2022-12-26T05:49:05.085Z,100303.84
2022-12-26T05:51:32.926Z,100305.94
2022-12-26T05:53:59.748Z,100312.34
2022-12-26T05:56:26.761Z,100311.50
2022-12-26T05:58:58.209Z,100324.00
2022-12-26T06:01:26.323Z,100311.97
2022-12-26T06:03:56.017Z,100317.31
2022-12-26T06:06:25.056Z,100324.00
2022-12-26T06:08:53.464Z,100343.44
2022-12-26T06:11:20.561Z,100340.31
2022-12-26T06:13:47.412Z,100328.91
2022-12-26T06:16:16.351Z,100323.34
2022-12-26T06:18:44.130Z,100326.34
2022-12-26T06:21:15.156Z,100325.66
2022-12-26T06:23:42.251Z,100317.53
2022-12-26T06:26:10.236Z,100323.50
2022-12-26T06:28:37.830Z,100330.84
2022-12-26T06:31:06.876Z,100338.69
2022-12-26T06:33:33.615Z,100340.19
2022-12-26T06:36:12.204Z,100332.75
2022-12-26T06:38:39.191Z,100324.03
2022-12-26T06:41:10.326Z,100334.97
2022-12-26T06:43:38.663Z,100338.97
2022-12-26T06:46:07.295Z,100335.72
2022-12-26T06:48:39.363Z,100343.41
2022-12-26T06:51:09.801Z,100352.41
2022-12-26T06:53:36.538Z,100359.13
2022-12-26T06:56:10.704Z,100365.84
2022-12-26T06:58:38.297Z,100361.09
2022-12-26T07:01:23.912Z,100370.25
2022-12-26T07:03:53.434Z,100373.03
2022-12-26T07:06:27.889Z,100369.13
2022-12-26T07:08:57.601Z,100374.13
2022-12-26T07:11:27.227Z,100383.91
2022-12-26T07:13:54.752Z,100382.25
2022-12-26T07:16:21.977Z,100388.03
2022-12-26T07:18:48.622Z,100381.31
2022-12-26T07:21:16.132Z,100388.22
2022-12-26T07:23:43.451Z,100388.22
2022-12-26T07:26:10.562Z,100386.06
2022-12-26T07:28:37.902Z,100391.88
2022-12-26T07:31:05.813Z,100385.94
2022-12-26T07:33:33.057Z,100389.19
2022-12-26T07:36:05.035Z,100391.13
2022-12-26T07:38:33.243Z,100392.84
2022-12-26T07:41:20.395Z,100395.16
2022-12-26T07:43:47.147Z,100393.78
2022-12-26T07:46:13.792Z,100395.16
2022-12-26T07:48:40.688Z,100392.16
2022-12-26T07:51:07.555Z,100388.66
2022-12-26T07:53:34.503Z,100393.66
2022-12-26T07:56:01.408Z,100401.41
2022-12-26T07:58:28.388Z,100396.22
2022-12-26T08:00:55.252Z,100403.16
2022-12-26T08:03:22.532Z,100398.03
2022-12-26T08:05:50.128Z,100401.94
2022-12-26T08:08:17.247Z,100412.53
2022-12-26T08:10:44.098Z,100407.81
2022-12-26T08:13:10.846Z,100412.72
2022-12-26T08:15:41.196Z,100418.28
2022-12-26T08:18:08.194Z,100438.31
2022-12-26T08:20:34.997Z,100436.72
2022-12-26T08:23:01.869Z,100443.47
2022-12-26T08:25:28.704Z,100441.84
2022-12-26T08:27:55.654Z,100441.50
2022-12-26T08:30:23.522Z,100441.25
2022-12-26T08:32:51.360Z,100448.56
2022-12-26T08:35:17.974Z,100449.06
2022-12-26T08:37:44.624Z,100444.75
2022-12-26T08:40:12.867Z,100446.47
2022-12-26T08:42:56.279Z,100446.47
2022-12-26T08:45:26.602Z,100456.81
2022-12-26T08:47:54.915Z,100459.03
2022-12-26T08:50:21.776Z,100458.53
2022-12-26T08:52:48.348Z,100459.81
2022-12-26T08:55:15.009Z,100462.84
2022-12-26T08:57:41.698Z,100462.59
2022-12-26T09:00:09.197Z,100461.31
2022-12-26T09:02:36.292Z,100462.25
2022-12-26T09:05:03.260Z,100466.44
2022-12-26T09:07:30.116Z,100476.06
2022-12-26T09:09:56.913Z,100471.06
2022-12-26T09:12:23.746Z,100483.75
2022-12-26T09:14:50.425Z,100482.94
2022-12-26T09:17:17.501Z,100504.72
2022-12-26T09:19:44.629Z,100506.69
2022-12-26T09:22:35.013Z,100512.38
2022-12-26T09:25:02.339Z,100502.03
2022-12-26T09:27:29.318Z,100513.91
2022-12-26T09:29:56.051Z,100509.03
2022-12-26T09:32:22.992Z,100509.47
2022-12-26T09:34:49.811Z,100505.16
2022-12-26T09:37:16.758Z,100512.25
2022-12-26T09:39:43.499Z,100508.31
2022-12-26T09:42:19.716Z,100515.50
2022-12-26T09:45:08.970Z,100522.28
2022-12-26T09:47:55.297Z,100525.88
2022-12-26T09:50:27.246Z,100521.56
2022-12-26T09:53:04.495Z,100526.69
2022-12-26T09:55:56.344Z,100534.59
2022-12-26T09:59:06.372Z,100539.47
2022-12-26T10:01:37.061Z,100543.44
2022-12-26T10:04:28.213Z,100543.56
2022-12-26T10:07:28.145Z,100535.53
2022-12-26T10:10:14.489Z,100541.13
2022-12-26T10:12:49.897Z,100539.47
2022-12-26T10:15:36.001Z,100530.03
2022-12-26T10:18:21.862Z,100529.00
2022-12-26T10:21:12.996Z,100535.50
2022-12-26T10:23:43.430Z,100535.31
2022-12-26T10:26:18.999Z,100538.94
2022-12-26T10:29:18.039Z,100539.38
2022-12-26T10:31:56.877Z,100549.72
2022-12-26T10:34:31.490Z,100546.69
2022-12-26T10:37:27.746Z,100540.88
2022-12-26T10:40:12.052Z,100531.31
2022-12-26T10:42:44.361Z,100530.41
2022-12-26T10:45:30.957Z,100537.84
2022-12-26T10:47:57.750Z,100532.72
2022-12-26T10:50:29.038Z,100536.78
2022-12-26T10:52:58.133Z,100541.31
2022-12-26T10:55:34.632Z,100541.06
2022-12-26T10:58:09.332Z,100539.44
2022-12-26T11:00:36.155Z,100545.00
2022-12-26T11:03:05.846Z,100554.22
2022-12-26T11:08:43.139Z,100562.81
2022-12-26T11:11:46.852Z,100563.63
2022-12-26T11:14:39.052Z,100558.16
2022-12-26T11:17:13.309Z,100560.38
2022-12-26T11:19:44.359Z,100557.53
2022-12-26T11:22:24.795Z,100561.47
2022-12-26T11:25:09.813Z,100559.03
2022-12-26T11:27:38.442Z,100559.59
2022-12-26T11:30:14.196Z,100556.09
2022-12-26T11:32:42.232Z,100554.19
2022-12-26T11:35:24.119Z,100555.13
2022-12-26T11:37:58.196Z,100555.19
2022-12-26T11:40:31.961Z,100553.69
2022-12-26T11:43:02.993Z,100557.66
2022-12-26T11:45:37.101Z,100549.53
2022-12-26T11:48:18.731Z,100570.16
2022-12-26T11:50:46.482Z,100550.94
2022-12-26T11:53:18.256Z,100562.84
2022-12-26T11:55:45.298Z,100538.94
2022-12-26T11:58:12.243Z,100547.50
2022-12-26T12:00:41.779Z,100552.72
2022-12-26T12:03:16.312Z,100542.81
2022-12-26T12:05:52.364Z,100537.47
2022-12-26T12:08:42.327Z,100564.25
2022-12-26T12:11:31.638Z,100580.47
2022-12-26T12:14:02.558Z,100573.19
2022-12-26T12:16:50.002Z,100561.38
2022-12-26T12:19:28.430Z,100562.44
2022-12-26T12:22:16.631Z,100569.53
2022-12-26T12:25:05.229Z,100579.91
2022-12-26T12:27:43.562Z,100571.06
2022-12-26T12:30:15.177Z,100575.94
2022-12-26T12:33:03.959Z,100571.25
2022-12-26T12:35:30.816Z,100554.38
2022-12-26T12:38:06.429Z,100551.69
2022-12-26T12:41:06.314Z,100558.44
2022-12-26T12:43:49.065Z,100572.91
2022-12-26T12:46:26.852Z,100577.78
2022-12-26T12:48:56.808Z,100588.97
2022-12-26T12:51:58.985Z,100584.19
2022-12-26T12:54:28.561Z,100585.69
2022-12-26T12:57:23.729Z,100592.59
2022-12-26T13:00:13.425Z,100595.72
2022-12-26T13:02:48.179Z,100599.66
2022-12-26T13:05:22.516Z,100630.41
2022-12-26T13:08:15.547Z,100623.34
2022-12-26T13:10:58.283Z,100622.59
2022-12-26T13:13:35.312Z,100606.91
2022-12-26T13:16:13.293Z,100626.47
2022-12-26T13:18:49.326Z,100623.22
2022-12-26T13:21:17.640Z,100610.84
2022-12-26T13:24:11.389Z,100614.84
2022-12-26T13:26:43.120Z,100612.94
2022-12-26T13:29:19.305Z,100624.50
2022-12-26T13:31:46.663Z,100620.88
2022-12-26T13:34:18.763Z,100626.47
2022-12-26T13:36:52.428Z,100624.81
2022-12-26T13:39:31.119Z,100628.81
2022-12-26T13:42:31.886Z,100636.38
2022-12-26T13:45:37.215Z,100635.31
2022-12-26T13:48:12.685Z,100638.34
2022-12-26T13:50:56.883Z,100640.81
2022-12-26T13:53:26.166Z,100632.75
2022-12-26T13:55:55.949Z,100636.00
2022-12-26T13:58:49.065Z,100635.09
2022-12-26T14:01:31.335Z,100637.53
2022-12-26T14:03:58.098Z,100644.75
2022-12-26T14:06:44.039Z,100651.63
2022-12-26T14:09:21.535Z,100655.81
2022-12-26T14:11:56.918Z,100655.56
2022-12-26T14:14:41.621Z,100655.13
2022-12-26T14:17:23.199Z,100665.16
2022-12-26T14:19:49.957Z,100665.59
2022-12-26T14:22:47.228Z,100676.78
2022-12-26T14:25:59.186Z,100682.38
2022-12-26T14:28:56.598Z,100676.44
2022-12-26T14:32:07.829Z,100682.25
2022-12-26T14:35:02.217Z,100691.91
2022-12-26T14:37:37.961Z,100704.72
2022-12-26T14:40:16.880Z,100721.50
2022-12-26T14:43:11.446Z,100728.63
2022-12-26T14:45:38.421Z,100731.03
2022-12-26T14:48:28.515Z,100742.22
2022-12-26T14:51:03.966Z,100735.72
2022-12-26T14:53:33.671Z,100736.19
2022-12-26T14:56:03.970Z,100750.16
2022-12-26T14:58:45.841Z,100763.78
2022-12-26T15:01:18.944Z,100777.28
2022-12-26T15:04:03.973Z,100782.06
2022-12-26T15:06:49.794Z,100791.94
2022-12-26T15:09:53.541Z,100786.72
2022-12-26T15:13:04.672Z,100805.84
2022-12-26T15:15:51.340Z,100811.44
2022-12-26T15:19:00.039Z,100822.69
2022-12-26T15:21:29.498Z,100828.19
2022-12-26T15:24:08.049Z,100833.19
2022-12-26T15:27:08.092Z,100834.69
2022-12-26T15:30:06.437Z,100840.28
2022-12-26T15:32:55.969Z,100831.22
2022-12-26T15:35:50.636Z,100835.66
2022-12-26T15:38:20.044Z,100844.50
2022-12-26T15:41:10.096Z,100855.44
2022-12-26T15:44:28.107Z,100861.53
2022-12-26T15:47:07.615Z,100862.81
2022-12-26T15:50:02.312Z,100864.31
2022-12-26T15:52:37.987Z,100865.94
2022-12-26T15:55:30.656Z,100873.75
2022-12-26T15:58:36.172Z,100882.25
2022-12-26T16:01:03.833Z,100896.56
2022-12-26T16:03:36.965Z,100901.22
2022-12-26T16:06:22.403Z,100902.97
2022-12-26T16:08:51.755Z,100917.03
2022-12-26T16:11:29.545Z,100926.25
2022-12-26T16:14:00.949Z,100938.47
2022-12-26T16:16:32.183Z,100931.81
2022-12-26T16:19:15.303Z,100938.34
2022-12-26T16:22:03.610Z,100956.75
2022-12-26T16:24:33.474Z,100949.53
2022-12-26T16:27:03.579Z,100951.97
2022-12-26T16:29:31.656Z,100959.88
2022-12-26T16:32:06.314Z,100963.03
2022-12-26T16:34:35.979Z,100963.03
2022-12-26T16:37:03.442Z,100969.31
2022-12-26T16:39:33.006Z,100967.66
2022-12-26T16:42:06.641Z,100970.81
2022-12-26T16:44:39.570Z,100976.06
2022-12-26T16:47:11.623Z,100987.59
2022-12-26T16:49:41.635Z,100993.28
2022-12-26T16:52:30.560Z,101003.59
2022-12-26T16:54:57.300Z,101010.66
2022-12-26T16:57:24.194Z,101009.97
2022-12-26T17:00:11.117Z,101018.50
2022-12-26T17:02:38.522Z,101020.97
2022-12-26T17:05:38.052Z,101015.03
2022-12-26T17:08:05.951Z,101019.66
2022-12-26T17:10:35.885Z,101023.41
2022-12-26T17:13:09.642Z,101026.19
2022-12-26T17:15:47.866Z,101030.63
2022-12-26T17:18:41.932Z,101028.66
2022-12-26T17:21:29.871Z,101033.53
2022-12-26T17:24:05.772Z,101037.31
2022-12-26T17:26:33.173Z,101041.59
2022-12-26T17:29:00.483Z,101051.75
2022-12-26T17:31:38.119Z,101054.63
2022-12-26T17:34:27.954Z,101063.69
2022-12-26T17:39:41.861Z,101062.53
2022-12-26T17:42:08.824Z,101060.28
2022-12-26T17:44:36.705Z,101059.69
2022-12-26T17:47:17.280Z,101061.78
2022-12-26T17:49:44.117Z,101062.16
2022-12-26T17:52:15.947Z,101062.97
2022-12-26T17:54:42.779Z,101066.63
2022-12-26T17:57:26.948Z,101058.00
2022-12-26T17:59:54.813Z,101066.38
2022-12-26T18:02:22.190Z,101064.47
2022-12-26T18:04:50.290Z,101069.38
2022-12-26T18:07:31.313Z,101076.31
2022-12-26T18:10:00.551Z,101084.72
2022-12-26T18:12:27.559Z,101086.53
2022-12-26T18:15:01.134Z,101103.97
2022-12-26T18:17:31.704Z,101102.22
2022-12-26T18:19:58.931Z,101105.69
2022-12-26T18:22:25.642Z,101110.09
2022-12-26T18:24:52.313Z,101115.56
2022-12-26T18:27:30.098Z,101123.94
2022-12-26T18:29:57.402Z,101123.44
2022-12-26T18:32:29.681Z,101123.44
2022-12-26T18:34:57.195Z,101127.53
2022-12-26T18:37:26.381Z,101134.28
2022-12-26T18:39:53.379Z,101140.19
2022-12-26T18:42:20.220Z,101147.78
2022-12-26T18:44:46.843Z,101151.06
2022-12-26T18:47:19.646Z,101159.13
2022-12-26T18:49:47.257Z,101162.53
2022-12-26T18:52:17.800Z,101176.38
2022-12-26T18:54:45.145Z,101180.31
2022-12-26T18:57:18.110Z,101178.66
2022-12-26T18:59:45.132Z,101183.59
2022-12-26T19:02:19.504Z,101189.03
2022-12-26T19:04:50.924Z,101193.81
2022-12-26T19:07:20.455Z,101197.75
2022-12-26T19:09:50.646Z,101207.09
2022-12-26T19:12:17.780Z,101210.03
2022-12-26T19:14:45.663Z,101204.63
2022-12-26T19:17:12.983Z,101206.59
2022-12-26T19:19:40.021Z,101204.31
2022-12-26T19:22:06.720Z,101204.31
2022-12-26T19:24:53.434Z,101206.59
2022-12-26T19:27:20.462Z,101213.84
2022-12-26T19:29:47.092Z,101214.66
2022-12-26T19:32:13.986Z,101214.50
2022-12-26T19:34:40.975Z,101218.28
2022-12-26T19:37:08.300Z,101221.72
2022-12-26T19:39:34.968Z,101217.66
2022-12-26T19:42:01.636Z,101224.03
2022-12-26T19:44:30.074Z,101232.25
2022-12-26T19:47:12.643Z,101222.69
2022-12-26T19:49:40.982Z,101227.78
2022-12-26T19:52:08.390Z,101234.38
2022-12-26T19:54:35.317Z,101226.78
2022-12-26T19:57:02.153Z,101226.00
2022-12-26T19:59:28.834Z,101229.91
2022-12-26T20:01:55.654Z,101233.19
2022-12-26T20:04:22.539Z,101231.22
2022-12-26T20:06:49.568Z,101238.09
2022-12-26T20:09:17.325Z,101236.16
2022-12-26T20:11:46.976Z,101238.78
2022-12-26T20:14:16.839Z,101233.69
2022-12-26T20:17:05.084Z,101231.53
2022-12-26T20:19:30.394Z,101231.53
2022-12-26T20:21:57.166Z,101238.06
2022-12-26T20:24:25.932Z,101226.91
2022-12-26T20:26:52.751Z,101234.97
2022-12-26T20:29:19.953Z,101240.38
2022-12-26T20:31:46.980Z,101245.16
2022-12-26T20:34:13.868Z,101243.66
2022-12-26T20:36:41.546Z,101245.31
2022-12-26T20:39:17.407Z,101251.72
2022-12-26T20:41:44.545Z,101254.84
2022-12-26T20:44:18.480Z,101259.94
2022-12-26T20:46:46.464Z,101261.75
2022-12-26T20:49:13.755Z,101261.91
2022-12-26T20:51:42.499Z,101263.41
2022-12-26T20:54:11.591Z,101266.19
2022-12-26T20:56:40.018Z,101265.53
2022-12-26T20:59:07.871Z,101271.59
2022-12-26T21:01:37.557Z,101272.25
2022-12-26T21:04:04.631Z,101270.66
2022-12-26T21:06:34.152Z,101274.75
2022-12-26T21:09:01.696Z,101277.56
2022-12-26T21:11:31.097Z,101274.25
2022-12-26T21:14:01.132Z,101283.16
2022-12-26T21:16:30.945Z,101276.59
2022-12-26T21:18:58.546Z,101283.81
2022-12-26T21:21:31.326Z,101287.91
2022-12-26T21:24:04.410Z,101288.06
2022-12-26T21:26:31.816Z,101293.66
2022-12-26T21:29:00.883Z,101293.94
2022-12-26T21:31:29.606Z,101298.06
2022-12-26T21:33:58.459Z,101297.59
2022-12-26T21:36:26.108Z,101303.19
2022-12-26T21:38:53.536Z,101299.91
2022-12-26T21:41:21.121Z,101304.84
2022-12-26T21:43:48.475Z,101315.34
2022-12-26T21:46:17.805Z,101319.59
2022-12-26T21:48:47.599Z,101317.97
2022-12-26T21:51:15.721Z,101322.38
2022-12-26T21:53:43.657Z,101320.59
2022-12-26T21:56:12.177Z,101322.91
2022-12-26T21:58:58.065Z,101327.19
2022-12-26T22:01:26.350Z,101333.47
2022-12-26T22:04:12.551Z,101335.25
2022-12-26T22:06:40.097Z,101339.53
2022-12-26T22:09:07.796Z,101339.19
2022-12-26T22:11:53.356Z,101346.78
2022-12-26T22:14:20.041Z,101354.31
2022-12-26T22:16:46.748Z,101358.59
2022-12-26T22:19:13.486Z,101356.59
2022-12-26T22:21:40.191Z,101354.63
2022-12-26T22:24:07.096Z,101362.69
2022-12-26T22:26:33.754Z,101368.56
2022-12-26T22:29:00.410Z,101372.84
2022-12-26T22:31:33.240Z,101374.97
2022-12-26T22:34:06.229Z,101383.50
2022-12-26T22:36:33.707Z,101381.66
2022-12-26T22:39:00.791Z,101375.53
2022-12-26T22:41:28.119Z,101383.25
2022-12-26T22:43:55.785Z,101385.66
2022-12-26T22:46:22.772Z,101384.19
2022-12-26T22:48:50.102Z,101394.53
2022-12-26T22:51:19.560Z,101395.47
2022-12-26T22:53:47.199Z,101392.34
2022-12-26T22:56:14.274Z,101391.97
2022-12-26T22:58:41.447Z,101389.34
2022-12-26T23:01:14.199Z,101394.72
2022-12-26T23:03:41.054Z,101400.28
2022-12-26T23:06:24.958Z,101396.53
2022-12-26T23:08:54.910Z,101396.00
2022-12-26T23:11:26.262Z,101406.47
2022-12-26T23:13:59.830Z,101405.97
2022-12-26T23:16:42.405Z,101411.34
2022-12-26T23:19:35.320Z,101408.72
2022-12-26T23:22:03.558Z,101414.09
2022-12-26T23:24:32.234Z,101416.38
2022-12-26T23:27:21.338Z,101425.66
2022-12-26T23:30:07.426Z,101421.91
2022-12-26T23:32:35.124Z,101418.91
2022-12-26T23:35:02.108Z,101419.56
2022-12-26T23:37:28.803Z,101421.00
2022-12-26T23:39:55.636Z,101416.56
2022-12-26T23:42:22.370Z,101419.78
2022-12-26T23:44:49.095Z,101414.84
2022-12-26T23:47:15.867Z,101417.44
2022-12-26T23:49:42.504Z,101418.91
2022-12-26T23:52:09.385Z,101421.69
2022-12-26T23:54:36.124Z,101417.88
2022-12-26T23:57:02.753Z,101425.72
2022-12-26T23:59:29.587Z,101426.03
